createdAt,value
2018-07-02T00:00:38.036Z,47.56
2018-07-02T00:01:38.035Z,47.66
2018-07-02T00:02:38.037Z,47.66
2018-07-02T00:03:38.034Z,47.87
2018-07-02T00:04:38.029Z,47.85
2018-07-02T00:05:38.028Z,47.66
2018-07-02T00:06:38.027Z,47.46
2018-07-02T00:07:38.027Z,47.66
2018-07-02T00:08:38.027Z,47.85
2018-07-02T00:09:38.027Z,48.33
2018-07-02T00:10:38.028Z,47.75
2018-07-02T00:11:38.024Z,48.04
2018-07-02T00:12:38.022Z,47.75
2018-07-02T00:13:38.016Z,47.94
2018-07-02T00:14:38.015Z,48.04
2018-07-02T00:15:38.011Z,47.56
2018-07-02T00:16:38.014Z,47.56
2018-07-02T00:17:38.014Z,47.85
2018-07-02T00:18:38.008Z,47.46
2018-07-02T00:19:38.004Z,47.46
2018-07-02T00:20:38.007Z,47.56
2018-07-02T00:21:38.006Z,47.66
2018-07-02T00:22:38.008Z,47.66
2018-07-02T00:23:38.006Z,47.75
2018-07-02T00:24:37.996Z,47.56
2018-07-02T00:25:37.995Z,48.13
2018-07-02T00:26:37.992Z,48.13
2018-07-02T00:27:37.991Z,47.66
2018-07-02T00:28:37.994Z,47.56
2018-07-02T00:29:37.993Z,47.94
2018-07-02T00:30:37.993Z,48.04
2018-07-02T00:31:38.049Z,47.94
2018-07-02T00:32:37.981Z,47.66
2018-07-02T00:33:37.980Z,47.56
2018-07-02T00:34:37.982Z,47.56
2018-07-02T00:35:37.979Z,47.56
2018-07-02T00:36:37.974Z,47.56
2018-07-02T00:37:37.973Z,47.46
2018-07-02T00:38:37.971Z,47.85
2018-07-02T00:39:37.968Z,48.13
2018-07-02T00:40:37.971Z,47.56
2018-07-02T00:41:37.971Z,48.52
2018-07-02T00:42:38.003Z,49.87
2018-07-02T00:43:37.967Z,50.90
2018-07-02T00:44:37.961Z,50.90
2018-07-02T00:45:37.958Z,50.32
2018-07-02T00:46:37.956Z,50.90
2018-07-02T00:47:37.954Z,51.09
2018-07-02T00:48:37.957Z,50.99
2018-07-02T00:49:37.957Z,50.70
2018-07-02T00:50:37.949Z,50.99
2018-07-02T00:51:37.946Z,51.57
2018-07-02T00:52:37.948Z,52.05
2018-07-02T00:53:37.947Z,51.95
2018-07-02T00:54:37.945Z,53.11
2018-07-02T00:55:37.942Z,54.13
2018-07-02T00:56:37.936Z,54.61
2018-07-02T00:57:37.934Z,55.67
2018-07-02T00:58:37.933Z,55.67
2018-07-02T00:59:37.930Z,56.34
2018-07-02T01:00:37.934Z,58.33
2018-07-02T01:01:37.932Z,59.19
2018-07-02T01:02:37.928Z,59.00
2018-07-02T01:03:37.925Z,59.29
2018-07-02T01:04:37.920Z,59.29
2018-07-02T01:05:37.918Z,59.58
2018-07-02T01:06:37.920Z,59.77
2018-07-02T01:07:37.917Z,60.44
2018-07-02T01:08:37.911Z,61.02
2018-07-02T01:09:37.911Z,61.88
2018-07-02T01:10:37.907Z,61.59
2018-07-02T01:11:37.904Z,61.56
2018-07-02T01:12:37.907Z,61.37
2018-07-02T01:13:37.907Z,62.23
2018-07-02T01:14:37.903Z,62.62
2018-07-02T01:15:37.900Z,62.81
2018-07-02T01:16:37.895Z,63.67
2018-07-02T01:17:37.891Z,63.48
2018-07-02T01:18:37.889Z,64.25
2018-07-02T01:19:37.887Z,64.34
2018-07-02T01:20:37.890Z,64.69
2018-07-02T01:21:37.889Z,65.08
2018-07-02T01:22:37.881Z,65.26
2018-07-02T01:23:37.878Z,65.75
2018-07-02T01:24:37.880Z,66.32
2018-07-02T01:25:37.880Z,66.32
2018-07-02T01:26:37.874Z,66.32
2018-07-02T01:27:37.872Z,66.96
2018-07-02T01:28:37.866Z,67.05
2018-07-02T01:29:37.867Z,67.54
2018-07-02T01:30:37.860Z,67.63
2018-07-02T01:31:37.856Z,67.82
2018-07-02T01:32:37.863Z,68.11
2018-07-02T01:33:37.860Z,68.49
2018-07-02T01:34:37.854Z,68.30
2018-07-02T01:35:37.854Z,68.30
2018-07-02T01:36:37.844Z,69.17
2018-07-02T01:37:37.841Z,68.97
2018-07-02T01:38:37.842Z,69.26
2018-07-02T01:39:37.843Z,69.54
2018-07-02T01:40:37.832Z,70.21
2018-07-02T01:41:37.829Z,70.31
2018-07-02T01:42:37.828Z,70.37
2018-07-02T01:43:37.825Z,70.37
2018-07-02T01:44:37.827Z,70.37
2018-07-02T01:45:37.824Z,70.47
2018-07-02T01:46:37.821Z,70.47
2018-07-02T01:47:37.819Z,70.85
2018-07-02T01:48:37.810Z,70.76
2018-07-02T01:49:37.809Z,70.85
2018-07-02T01:50:37.806Z,71.42
2018-07-02T01:51:37.800Z,71.81
2018-07-02T01:52:37.805Z,72.09
2018-07-02T01:53:37.799Z,72.00
2018-07-02T01:54:37.795Z,72.44
2018-07-02T01:55:37.788Z,72.19
2018-07-02T01:56:37.791Z,72.38
2018-07-02T01:57:37.786Z,71.97
2018-07-02T01:58:37.785Z,71.71
2018-07-02T01:59:37.780Z,71.71
2018-07-02T02:00:37.775Z,71.97
2018-07-02T02:01:37.770Z,71.97
2018-07-02T02:02:37.769Z,73.02
2018-07-02T02:03:37.763Z,72.34
2018-07-02T02:04:37.765Z,72.34
2018-07-02T02:05:37.762Z,72.92
2018-07-02T02:06:37.762Z,72.63
2018-07-02T02:07:37.757Z,73.11
2018-07-02T02:08:37.748Z,73.50
2018-07-02T02:09:37.744Z,74.07
2018-07-02T02:10:37.748Z,73.50
2018-07-02T02:11:37.749Z,73.40
2018-07-02T02:12:37.736Z,73.79
2018-07-02T02:13:37.732Z,74.07
2018-07-02T02:14:37.729Z,73.69
2018-07-02T02:15:37.725Z,73.69
2018-07-02T02:16:37.729Z,73.11
2018-07-02T02:17:37.724Z,72.73
2018-07-02T02:18:37.719Z,72.16
2018-07-02T02:19:37.715Z,71.97
2018-07-02T02:20:37.710Z,71.58
2018-07-02T02:21:37.706Z,71.11
2018-07-02T02:22:37.703Z,70.72
2018-07-02T02:23:37.699Z,70.43
2018-07-02T02:24:37.702Z,70.34
2018-07-02T02:25:37.696Z,70.43
2018-07-02T02:26:37.688Z,70.24
2018-07-02T02:27:37.684Z,71.11
2018-07-02T02:28:37.688Z,70.53
2018-07-02T02:29:37.683Z,70.34
2018-07-02T02:30:37.679Z,69.95
2018-07-02T02:31:37.674Z,70.53
2018-07-02T02:32:37.666Z,70.15
2018-07-02T02:33:37.666Z,69.76
2018-07-02T02:34:37.663Z,69.67
2018-07-02T02:35:37.657Z,69.76
2018-07-02T02:36:37.658Z,69.48
2018-07-02T02:37:37.655Z,69.48
2018-07-02T02:38:37.651Z,69.38
2018-07-02T02:39:37.655Z,69.38
2018-07-02T02:40:37.651Z,69.76
2018-07-02T02:41:37.635Z,68.52
2018-07-02T02:42:37.637Z,69.09
2018-07-02T02:43:37.632Z,69.19
2018-07-02T02:44:37.625Z,69.09
2018-07-02T02:45:37.621Z,68.71
2018-07-02T02:46:37.620Z,69.19
2018-07-02T02:47:37.613Z,69.29
2018-07-02T02:48:37.613Z,69.29
2018-07-02T02:49:37.610Z,69.09
2018-07-02T02:50:37.607Z,69.09
2018-07-02T02:51:37.602Z,69.48
2018-07-02T02:52:37.595Z,69.19
2018-07-02T02:53:37.592Z,69.19
2018-07-02T02:54:37.591Z,69.48
2018-07-02T02:55:37.588Z,69.29
2018-07-02T02:56:37.586Z,69.19
2018-07-02T02:57:37.584Z,69.09
2018-07-02T02:58:37.573Z,69.19
2018-07-02T02:59:37.573Z,69.19
2018-07-02T03:00:37.573Z,69.00
2018-07-02T03:01:37.569Z,69.09
2018-07-02T03:02:37.563Z,68.23
2018-07-02T03:03:37.559Z,69.09
2018-07-02T03:04:37.551Z,68.90
2018-07-02T03:05:37.548Z,69.29
2018-07-02T03:06:37.544Z,68.90
2018-07-02T03:07:37.544Z,69.38
2018-07-02T03:08:37.541Z,69.57
2018-07-02T03:09:37.556Z,69.09
2018-07-02T03:10:37.534Z,69.19
2018-07-02T03:11:37.530Z,69.76
2018-07-02T03:12:37.528Z,70.53
2018-07-02T03:13:37.518Z,70.34
2018-07-02T03:14:37.519Z,70.15
2018-07-02T03:15:37.514Z,70.24
2018-07-02T03:16:37.507Z,70.34
2018-07-02T03:17:37.503Z,70.62
2018-07-02T03:18:37.501Z,70.34
2018-07-02T03:19:37.495Z,70.62
2018-07-02T03:20:37.497Z,70.24
2018-07-02T03:21:37.494Z,70.43
2018-07-02T03:22:37.491Z,70.40
2018-07-02T03:23:37.491Z,70.72
2018-07-02T03:24:37.478Z,70.21
2018-07-02T03:25:37.475Z,70.21
2018-07-02T03:26:37.470Z,70.11
2018-07-02T03:27:37.466Z,70.40
2018-07-02T03:28:37.466Z,70.30
2018-07-02T03:29:37.464Z,70.30
2018-07-02T03:30:37.455Z,70.11
2018-07-02T03:31:37.451Z,70.21
2018-07-02T03:32:37.450Z,70.30
2018-07-02T03:33:37.447Z,70.11
2018-07-02T03:34:37.445Z,70.11
2018-07-02T03:35:37.440Z,69.82
2018-07-02T03:36:37.432Z,69.25
2018-07-02T03:37:37.429Z,69.44
2018-07-02T03:38:37.425Z,69.25
2018-07-02T03:39:37.420Z,69.54
2018-07-02T03:40:37.422Z,68.77
2018-07-02T03:41:37.418Z,69.06
2018-07-02T03:42:37.413Z,69.15
2018-07-02T03:43:37.409Z,68.87
2018-07-02T03:44:37.401Z,69.06
2018-07-02T03:45:37.397Z,68.87
2018-07-02T03:46:37.398Z,69.44
2018-07-02T03:47:37.393Z,69.35
2018-07-02T03:48:37.385Z,69.48
2018-07-02T03:49:37.382Z,69.86
2018-07-02T03:50:37.379Z,69.82
2018-07-02T03:51:37.374Z,70.30
2018-07-02T03:52:37.376Z,70.30
2018-07-02T03:53:37.373Z,70.68
2018-07-02T03:54:37.375Z,70.78
2018-07-02T03:55:37.363Z,71.07
2018-07-02T03:56:37.356Z,72.02
2018-07-02T03:57:37.351Z,72.12
2018-07-02T03:58:37.347Z,72.22
2018-07-02T03:59:37.345Z,71.64
2018-07-02T04:00:37.344Z,71.36
2018-07-02T04:01:37.340Z,70.87
2018-07-02T04:02:37.334Z,70.30
2018-07-02T04:03:37.328Z,69.44
2018-07-02T04:04:37.328Z,70.30
2018-07-02T04:05:37.326Z,70.43
2018-07-02T04:06:37.323Z,70.97
2018-07-02T04:07:37.318Z,71.48
2018-07-02T04:08:37.310Z,70.81
2018-07-02T04:09:37.305Z,70.30
2018-07-02T04:10:37.302Z,70.72
2018-07-02T04:11:37.298Z,71.11
2018-07-02T04:12:37.299Z,71.11
2018-07-02T04:13:37.295Z,70.43
2018-07-02T04:14:37.292Z,70.34
2018-07-02T04:15:37.288Z,69.95
2018-07-02T04:16:37.279Z,70.24
2018-07-02T04:17:37.275Z,70.24
2018-07-02T04:18:37.277Z,70.24
2018-07-02T04:19:37.272Z,70.15
2018-07-02T04:20:37.264Z,69.86
2018-07-02T04:21:37.261Z,69.86
2018-07-02T04:22:37.257Z,69.48
2018-07-02T04:23:37.252Z,69.09
2018-07-02T04:24:37.253Z,68.90
2018-07-02T04:25:37.249Z,69.00
2018-07-02T04:26:37.246Z,68.80
2018-07-02T04:27:37.242Z,68.52
2018-07-02T04:28:37.235Z,68.42
2018-07-02T04:29:37.230Z,68.04
2018-07-02T04:30:37.228Z,68.33
2018-07-02T04:31:37.223Z,67.79
2018-07-02T04:32:37.245Z,67.76
2018-07-02T04:33:37.222Z,67.98
2018-07-02T04:34:37.212Z,68.07
2018-07-02T04:35:37.208Z,68.17
2018-07-02T04:36:37.211Z,68.55
2018-07-02T04:37:37.207Z,67.50
2018-07-02T04:38:37.202Z,67.79
2018-07-02T04:39:37.200Z,67.31
2018-07-02T04:40:37.190Z,67.41
2018-07-02T04:41:37.187Z,67.98
2018-07-02T04:42:37.182Z,67.11
2018-07-02T04:43:37.177Z,67.60
2018-07-02T04:44:37.181Z,67.02
2018-07-02T04:45:37.176Z,67.88
2018-07-02T04:46:37.174Z,67.79
2018-07-02T04:47:37.170Z,67.41
2018-07-02T04:48:37.161Z,67.69
2018-07-02T04:49:37.158Z,67.69
2018-07-02T04:50:37.160Z,67.69
2018-07-02T04:51:37.160Z,67.63
2018-07-02T04:52:37.147Z,67.34
2018-07-02T04:53:37.149Z,67.50
2018-07-02T04:54:37.141Z,67.54
2018-07-02T04:55:37.136Z,67.15
2018-07-02T04:56:37.137Z,67.05
2018-07-02T04:57:37.134Z,67.05
2018-07-02T04:58:37.131Z,66.96
2018-07-02T04:59:37.170Z,66.77
2018-07-02T05:00:37.119Z,66.80
2018-07-02T05:01:37.116Z,66.89
2018-07-02T05:02:37.113Z,66.22
2018-07-02T05:03:37.109Z,65.78
2018-07-02T05:04:37.112Z,65.11
2018-07-02T05:05:37.108Z,64.66
2018-07-02T05:06:37.102Z,63.60
2018-07-02T05:07:37.150Z,63.16
2018-07-02T05:08:37.103Z,62.96
2018-07-02T05:09:37.103Z,62.04
2018-07-02T05:10:37.097Z,61.36
2018-07-02T05:11:37.095Z,60.34
2018-07-02T05:12:37.090Z,60.14
2018-07-02T05:13:37.090Z,59.41
2018-07-02T05:14:37.095Z,58.37
2018-07-02T05:15:37.093Z,57.42
2018-07-02T05:16:37.090Z,56.67
2018-07-02T05:17:37.090Z,55.07
2018-07-02T05:18:37.090Z,54.71
2018-07-02T05:19:37.090Z,53.87
2018-07-02T05:20:37.097Z,52.64
2018-07-02T05:21:37.098Z,52.28
2018-07-02T05:22:37.095Z,51.15
2018-07-02T05:23:37.096Z,50.21
2018-07-02T05:24:37.104Z,48.79
2018-07-02T05:25:37.106Z,48.13
2018-07-02T05:26:37.110Z,47.00
2018-07-02T05:27:37.114Z,46.15
2018-07-02T05:28:37.110Z,44.91
2018-07-02T05:29:37.113Z,43.68
2018-07-02T05:30:37.116Z,43.02
2018-07-02T05:31:37.120Z,42.55
2018-07-02T05:32:37.127Z,41.02
2018-07-02T05:33:37.132Z,40.64
2018-07-02T05:34:37.254Z,40.23
2018-07-02T05:35:37.140Z,40.33
2018-07-02T05:36:37.139Z,40.17
2018-07-02T05:37:37.144Z,39.57
2018-07-02T05:38:37.152Z,39.01
2018-07-02T05:39:37.157Z,38.73
2018-07-02T05:40:37.156Z,38.37
2018-07-02T05:41:37.162Z,38.19
2018-07-02T05:42:37.168Z,37.02
2018-07-02T05:43:37.172Z,37.02
2018-07-02T05:44:37.184Z,37.12
2018-07-02T05:45:37.189Z,36.71
2018-07-02T05:46:37.195Z,37.02
2018-07-02T05:47:37.199Z,37.06
2018-07-02T05:48:37.224Z,36.28
2018-07-02T05:49:37.206Z,35.80
2018-07-02T05:50:37.212Z,35.42
2018-07-02T05:51:37.337Z,35.13
2018-07-02T05:52:37.230Z,35.25
2018-07-02T05:53:37.235Z,34.79
2018-07-02T05:54:37.236Z,34.11
2018-07-02T05:55:37.242Z,33.82
2018-07-02T05:56:37.253Z,33.29
2018-07-02T05:57:37.261Z,33.53
2018-07-02T05:58:37.267Z,33.72
2018-07-02T05:59:37.275Z,33.06
2018-07-02T06:00:37.370Z,32.57
2018-07-02T06:01:37.284Z,32.97
2018-07-02T06:02:37.292Z,32.60
2018-07-02T06:03:37.298Z,31.41
2018-07-02T06:04:37.310Z,31.41
2018-07-02T06:05:37.319Z,31.74
2018-07-02T06:06:37.325Z,31.15
2018-07-02T06:07:37.333Z,30.97
2018-07-02T06:08:37.336Z,30.77
2018-07-02T06:09:37.345Z,30.71
2018-07-02T06:10:37.356Z,30.62
2018-07-02T06:11:37.366Z,30.15
2018-07-02T06:12:37.368Z,29.18
2018-07-02T06:13:37.377Z,28.69
2018-07-02T06:14:37.386Z,28.88
2018-07-02T06:15:37.394Z,28.47
2018-07-02T06:16:37.462Z,28.19
2018-07-02T06:17:37.417Z,28.78
2018-07-02T06:18:37.426Z,28.51
2018-07-02T06:19:37.434Z,28.31
2018-07-02T06:20:37.439Z,28.40
2018-07-02T06:21:37.454Z,28.61
2018-07-02T06:22:37.460Z,28.12
2018-07-02T06:23:37.468Z,28.02
2018-07-02T06:24:37.483Z,28.23
2018-07-02T06:25:37.494Z,27.56
2018-07-02T06:26:37.498Z,26.97
2018-07-02T06:27:37.508Z,26.59
2018-07-02T06:28:37.523Z,27.08
2018-07-02T06:29:37.534Z,26.48
2018-07-02T06:30:37.543Z,26.55
2018-07-02T06:31:37.552Z,26.55
2018-07-02T06:32:37.558Z,27.04
2018-07-02T06:33:37.569Z,27.23
2018-07-02T06:34:37.580Z,27.78
2018-07-02T06:35:37.590Z,27.87
2018-07-02T06:36:37.605Z,28.38
2018-07-02T06:37:37.616Z,28.40
2018-07-02T06:38:37.628Z,28.63
2018-07-02T06:39:37.637Z,27.75
2018-07-02T06:40:37.643Z,27.25
2018-07-02T06:41:37.655Z,27.53
2018-07-02T06:42:37.672Z,27.75
2018-07-02T06:43:37.682Z,28.01
2018-07-02T06:44:37.688Z,27.92
2018-07-02T06:45:37.699Z,27.97
2018-07-02T06:46:37.710Z,28.06
2018-07-02T06:47:37.723Z,28.44
2018-07-02T06:48:37.738Z,29.16
2018-07-02T06:49:37.748Z,29.24
2018-07-02T06:50:37.759Z,29.36
2018-07-02T06:51:37.770Z,29.18
2018-07-02T06:52:37.777Z,28.91
2018-07-02T06:53:37.790Z,28.25
2018-07-02T06:54:37.802Z,27.83
2018-07-02T06:55:37.811Z,28.03
2018-07-02T06:56:37.828Z,27.75
2018-07-02T06:57:37.840Z,27.98
2018-07-02T06:58:37.869Z,27.42
2018-07-02T06:59:37.858Z,26.45
2018-07-02T07:00:37.875Z,25.28
2018-07-02T07:01:37.890Z,25.68
2018-07-02T07:02:37.902Z,25.21
2018-07-02T07:03:37.915Z,24.43
2018-07-02T07:04:37.919Z,24.84
2018-07-02T07:05:37.933Z,24.44
2018-07-02T07:06:37.946Z,23.65
2018-07-02T07:07:37.957Z,23.55
2018-07-02T07:08:38.028Z,22.94
2018-07-02T07:09:37.987Z,23.14
2018-07-02T07:10:38.005Z,23.83
2018-07-02T07:11:38.014Z,24.01
2018-07-02T07:12:38.024Z,24.10
2018-07-02T07:13:38.036Z,24.32
2018-07-02T07:14:38.053Z,24.29
2018-07-02T07:15:38.092Z,24.10
2018-07-02T07:16:38.075Z,24.11
2018-07-02T07:17:38.089Z,24.32
2018-07-02T07:18:38.104Z,24.29
2018-07-02T07:19:38.119Z,24.48
2018-07-02T07:20:38.133Z,25.01
2018-07-02T07:21:38.146Z,26.18
2018-07-02T07:22:38.162Z,25.92
2018-07-02T07:23:38.174Z,25.56
2018-07-02T07:24:38.183Z,25.59
2018-07-02T07:25:38.197Z,24.81
2018-07-02T07:26:38.210Z,24.62
2018-07-02T07:27:38.237Z,24.58
2018-07-02T07:28:38.241Z,25.17
2018-07-02T07:29:38.256Z,25.03
2018-07-02T07:30:38.265Z,24.52
2018-07-02T07:31:38.278Z,25.51
2018-07-02T07:32:38.297Z,24.93
2018-07-02T07:33:38.310Z,24.35
2018-07-02T07:34:38.326Z,24.92
2018-07-02T07:35:38.338Z,25.42
2018-07-02T07:36:38.352Z,25.05
2018-07-02T07:37:38.362Z,24.97
2018-07-02T07:38:38.376Z,24.51
2018-07-02T07:39:38.390Z,23.62
2018-07-02T07:40:38.409Z,23.58
2018-07-02T07:41:38.424Z,24.11
2018-07-02T07:42:38.437Z,23.05
2018-07-02T07:43:38.450Z,23.07
2018-07-02T07:44:38.460Z,22.19
2018-07-02T07:45:38.474Z,21.94
2018-07-02T07:46:38.494Z,23.25
2018-07-02T07:47:38.507Z,23.55
2018-07-02T07:48:38.517Z,24.03
2018-07-02T07:49:38.534Z,24.71
2018-07-02T07:50:38.547Z,24.92
2018-07-02T07:51:38.560Z,24.65
2018-07-02T07:52:38.580Z,24.96
2018-07-02T07:53:38.596Z,24.29
2018-07-02T07:54:38.609Z,25.07
2018-07-02T07:55:38.624Z,24.16
2018-07-02T07:56:38.637Z,25.28
2018-07-02T07:57:38.648Z,24.65
2018-07-02T07:58:38.661Z,24.96
2018-07-02T07:59:38.677Z,24.53
2018-07-02T08:00:38.694Z,25.15
2018-07-02T08:01:38.709Z,24.18
2018-07-02T08:02:38.719Z,24.21
2018-07-02T08:03:38.744Z,23.05
2018-07-02T08:04:38.754Z,22.88
2018-07-02T08:05:38.768Z,22.28
2018-07-02T08:06:38.785Z,22.56
2018-07-02T08:07:38.800Z,22.66
2018-07-02T08:08:38.815Z,22.53
2018-07-02T08:09:38.824Z,22.56
2018-07-02T08:10:38.839Z,22.73
2018-07-02T08:11:38.854Z,22.52
2018-07-02T08:12:38.875Z,23.21
2018-07-02T08:13:38.890Z,22.73
2018-07-02T08:14:38.904Z,22.86
2018-07-02T08:15:38.919Z,22.78
2018-07-02T08:16:38.931Z,22.70
2018-07-02T08:17:38.947Z,22.03
2018-07-02T08:18:38.966Z,21.36
2018-07-02T08:19:38.981Z,20.67
2018-07-02T08:20:38.992Z,19.59
2018-07-02T08:21:39.009Z,20.08
2018-07-02T08:22:39.025Z,19.81
2018-07-02T08:23:39.041Z,19.79
2018-07-02T08:24:39.062Z,19.89
2018-07-02T08:25:39.079Z,19.50
2018-07-02T08:26:39.099Z,18.90
2018-07-02T08:27:39.113Z,19.51
2018-07-02T08:28:39.122Z,19.89
2018-07-02T08:29:39.139Z,19.65
2018-07-02T08:30:39.157Z,20.98
2018-07-02T08:31:39.172Z,21.08
2018-07-02T08:32:39.194Z,21.21
2018-07-02T08:33:39.212Z,20.72
2018-07-02T08:34:39.224Z,20.60
2018-07-02T08:35:39.240Z,21.04
2018-07-02T08:36:39.263Z,21.22
2018-07-02T08:37:39.278Z,22.03
2018-07-02T08:38:39.295Z,22.41
2018-07-02T08:39:39.310Z,22.84
2018-07-02T08:40:39.323Z,22.73
2018-07-02T08:41:39.340Z,22.36
2018-07-02T08:42:39.358Z,22.89
2018-07-02T08:43:39.372Z,22.01
2018-07-02T08:44:39.393Z,21.05
2018-07-02T08:45:39.410Z,20.55
2018-07-02T08:46:39.479Z,20.55
2018-07-02T08:47:39.444Z,21.14
2018-07-02T08:48:39.457Z,20.32
2018-07-02T08:49:39.473Z,21.30
2018-07-02T08:50:39.496Z,21.28
2018-07-02T08:51:39.514Z,20.78
2018-07-02T08:52:39.579Z,21.44
2018-07-02T08:53:39.542Z,21.73
2018-07-02T08:54:39.561Z,21.73
2018-07-02T08:55:39.577Z,21.28
2018-07-02T08:56:39.597Z,21.11
2018-07-02T08:57:39.614Z,21.48
2018-07-02T08:58:39.631Z,21.67
2018-07-02T08:59:39.648Z,22.47
2018-07-02T09:00:39.661Z,20.98
2018-07-02T09:01:39.678Z,20.96
2018-07-02T09:02:39.696Z,20.75
2018-07-02T09:03:39.712Z,20.94
2018-07-02T09:04:39.734Z,21.23
2018-07-02T09:05:39.753Z,21.02
2018-07-02T09:06:39.765Z,22.03
2018-07-02T09:07:39.781Z,21.26
2018-07-02T09:08:39.804Z,20.59
2018-07-02T09:09:39.821Z,20.57
2018-07-02T09:10:39.839Z,20.57
2018-07-02T09:11:39.856Z,20.93
2018-07-02T09:12:39.868Z,21.34
2018-07-02T09:13:39.884Z,21.20
2018-07-02T09:14:39.964Z,21.59
2018-07-02T09:15:39.919Z,22.50
2018-07-02T09:16:39.941Z,22.52
2018-07-02T09:17:39.959Z,22.05
2018-07-02T09:18:39.975Z,21.07
2018-07-02T09:19:39.992Z,21.15
2018-07-02T09:20:40.064Z,20.95
2018-07-02T09:21:40.023Z,20.97
2018-07-02T09:22:40.045Z,20.37
2018-07-02T09:23:40.062Z,20.57
2018-07-02T09:24:40.073Z,20.30
2018-07-02T09:25:40.092Z,19.93
2018-07-02T09:26:40.109Z,20.24
2018-07-02T09:27:40.123Z,19.87
2018-07-02T09:28:40.151Z,19.10
2018-07-02T09:29:40.163Z,18.62
2018-07-02T09:30:40.182Z,18.63
2018-07-02T09:31:40.199Z,18.05
2018-07-02T09:32:40.220Z,17.44
2018-07-02T09:33:40.237Z,17.88
2018-07-02T09:34:40.250Z,18.16
2018-07-02T09:35:40.268Z,18.44
2018-07-02T09:36:40.294Z,18.83
2018-07-02T09:37:40.315Z,19.82
2018-07-02T09:38:40.324Z,19.82
2018-07-02T09:39:40.341Z,19.82
2018-07-02T09:40:40.365Z,19.40
2018-07-02T09:41:40.386Z,19.45
2018-07-02T09:42:40.400Z,21.20
2018-07-02T09:43:40.418Z,21.23
2018-07-02T09:44:40.433Z,21.15
2018-07-02T09:45:40.451Z,20.96
2018-07-02T09:46:40.469Z,20.89
2018-07-02T09:47:40.486Z,20.91
2018-07-02T09:48:40.508Z,20.03
2018-07-02T09:49:40.527Z,19.45
2018-07-02T09:50:40.545Z,18.95
2018-07-02T09:51:40.563Z,19.32
2018-07-02T09:52:40.576Z,19.64
2018-07-02T09:53:40.595Z,19.74
2018-07-02T09:54:40.618Z,19.18
2018-07-02T09:55:40.635Z,18.88
2018-07-02T09:56:40.649Z,18.10
2018-07-02T09:57:40.667Z,17.30
2018-07-02T09:58:40.686Z,17.28
2018-07-02T09:59:40.703Z,17.82
2018-07-02T10:00:40.740Z,19.08
2018-07-02T10:01:40.749Z,19.48
2018-07-02T10:02:40.764Z,19.68
2018-07-02T10:03:40.781Z,20.26
2018-07-02T10:04:40.795Z,19.96
2018-07-02T10:05:40.813Z,20.75
2018-07-02T10:06:40.851Z,20.98
2018-07-02T10:07:40.849Z,20.52
2018-07-02T10:08:40.872Z,19.31
2018-07-02T10:09:40.892Z,19.60
2018-07-02T10:10:40.904Z,19.98
2018-07-02T10:11:40.927Z,19.81
2018-07-02T10:12:41.005Z,19.90
2018-07-02T10:13:40.962Z,19.61
2018-07-02T10:14:40.980Z,19.81
2018-07-02T10:15:40.997Z,19.42
2018-07-02T10:16:41.014Z,19.69
2018-07-02T10:17:41.030Z,19.77
2018-07-02T10:18:41.051Z,20.35
2018-07-02T10:19:41.065Z,20.95
2018-07-02T10:20:41.088Z,21.06
2018-07-02T10:21:41.105Z,20.59
2018-07-02T10:22:41.127Z,20.70
2018-07-02T10:23:41.153Z,19.93
2018-07-02T10:24:41.156Z,20.04
2018-07-02T10:25:41.173Z,19.53
2018-07-02T10:26:41.196Z,19.61
2018-07-02T10:27:41.213Z,19.71
2018-07-02T10:28:41.226Z,19.20
2018-07-02T10:29:41.255Z,19.58
2018-07-02T10:30:41.307Z,19.79
2018-07-02T10:31:41.281Z,19.59
2018-07-02T10:32:41.303Z,19.90
2018-07-02T10:33:41.321Z,19.84
2018-07-02T10:34:41.370Z,19.66
2018-07-02T10:35:41.357Z,18.17
2018-07-02T10:36:41.370Z,18.16
2018-07-02T10:37:41.387Z,18.14
2018-07-02T10:38:41.407Z,18.13
2018-07-02T10:39:41.425Z,18.41
2018-07-02T10:40:41.447Z,18.90
2018-07-02T10:41:41.471Z,19.11
2018-07-02T10:42:41.479Z,19.62
2018-07-02T10:43:41.496Z,19.74
2018-07-02T10:44:41.520Z,19.17
2018-07-02T10:45:41.538Z,19.18
2018-07-02T10:46:41.556Z,18.10
2018-07-02T10:47:41.574Z,17.91
2018-07-02T10:48:41.590Z,18.10
2018-07-02T10:49:41.607Z,17.27
2018-07-02T10:50:41.625Z,18.04
2018-07-02T10:51:41.642Z,18.51
2018-07-02T10:52:41.665Z,19.06
2018-07-02T10:53:41.684Z,19.24
2018-07-02T10:54:41.702Z,19.53
2018-07-02T10:55:41.779Z,20.69
2018-07-02T10:56:41.733Z,20.79
2018-07-02T10:57:41.751Z,20.72
2018-07-02T10:58:41.774Z,21.04
2018-07-02T10:59:41.808Z,21.17
2018-07-02T11:00:41.802Z,20.31
2018-07-02T11:01:41.820Z,19.32
2018-07-02T11:02:41.838Z,18.73
2018-07-02T11:03:41.854Z,18.54
2018-07-02T11:04:41.878Z,18.26
2018-07-02T11:05:41.894Z,18.16
2018-07-02T11:06:41.912Z,18.25
2018-07-02T11:07:41.935Z,18.65
2018-07-02T11:08:41.941Z,18.73
2018-07-02T11:09:41.959Z,19.21
2018-07-02T11:10:41.976Z,19.02
2018-07-02T11:11:41.993Z,18.80
2018-07-02T11:12:42.017Z,19.81
2018-07-02T11:13:42.034Z,18.93
2018-07-02T11:14:42.045Z,18.54
2018-07-02T11:15:42.063Z,18.62
2018-07-02T11:16:42.084Z,19.00
2018-07-02T11:17:42.102Z,19.80
2018-07-02T11:18:42.120Z,19.20
2018-07-02T11:19:42.138Z,19.58
2018-07-02T11:20:42.151Z,19.65
2018-07-02T11:21:42.167Z,19.84
2018-07-02T11:22:42.185Z,20.50
2018-07-02T11:23:42.222Z,21.16
2018-07-02T11:24:42.232Z,22.44
2018-07-02T11:25:42.238Z,23.22
2018-07-02T11:26:42.255Z,23.13
2018-07-02T11:27:42.269Z,23.52
2018-07-02T11:28:42.284Z,22.81
2018-07-02T11:29:42.295Z,23.30
2018-07-02T11:30:42.315Z,23.88
2018-07-02T11:31:42.329Z,23.79
2018-07-02T11:32:42.337Z,24.47
2018-07-02T11:33:42.351Z,24.36
2018-07-02T11:34:42.383Z,25.04
2018-07-02T11:35:42.376Z,25.52
2018-07-02T11:36:42.396Z,26.01
2018-07-02T11:37:42.408Z,25.62
2018-07-02T11:38:42.417Z,25.52
2018-07-02T11:39:42.429Z,25.71
2018-07-02T11:40:42.438Z,25.81
2018-07-02T11:41:42.446Z,26.67
2018-07-02T11:42:42.457Z,27.06
2018-07-02T11:43:42.467Z,26.95
2018-07-02T11:44:42.484Z,27.05
2018-07-02T11:45:42.495Z,27.13
2018-07-02T11:46:42.496Z,26.62
2018-07-02T11:47:42.504Z,27.00
2018-07-02T11:48:42.517Z,27.29
2018-07-02T11:49:42.570Z,27.78
2018-07-02T11:50:42.537Z,27.68
2018-07-02T11:51:42.543Z,28.16
2018-07-02T11:52:42.547Z,28.25
2018-07-02T11:53:42.555Z,27.76
2018-07-02T11:54:42.564Z,28.05
2018-07-02T11:55:42.569Z,28.23
2018-07-02T11:56:42.581Z,28.14
2018-07-02T11:57:42.589Z,28.72
2018-07-02T11:58:42.597Z,28.72
2018-07-02T11:59:42.605Z,28.14
2018-07-02T12:00:42.604Z,28.25
2018-07-02T12:01:42.611Z,28.25
2018-07-02T12:02:42.624Z,28.85
2018-07-02T12:03:42.628Z,28.15
2018-07-02T12:04:42.630Z,28.64
2018-07-02T12:05:42.640Z,29.22
2018-07-02T12:06:42.646Z,28.85
2018-07-02T12:07:42.650Z,29.04
2018-07-02T12:08:42.659Z,28.65
2018-07-02T12:09:42.666Z,29.14
2018-07-02T12:10:42.672Z,28.07
2018-07-02T12:11:42.679Z,28.07
2018-07-02T12:12:42.688Z,27.65
2018-07-02T12:13:42.685Z,27.54
2018-07-02T12:14:42.694Z,28.14
2018-07-02T12:15:42.696Z,28.33
2018-07-02T12:16:42.708Z,28.14
2018-07-02T12:17:42.713Z,28.23
2018-07-02T12:18:42.713Z,28.53
2018-07-02T12:19:42.718Z,28.04
2018-07-02T12:20:42.729Z,28.22
2018-07-02T12:21:42.737Z,28.72
2018-07-02T12:22:42.740Z,29.02
2018-07-02T12:23:42.745Z,29.22
2018-07-02T12:24:42.746Z,29.42
2018-07-02T12:25:42.751Z,28.93
2018-07-02T12:26:42.757Z,29.03
2018-07-02T12:27:42.762Z,29.14
2018-07-02T12:28:42.772Z,28.83
2018-07-02T12:29:42.777Z,28.93
2018-07-02T12:30:42.783Z,29.33
2018-07-02T12:31:42.789Z,28.85
2018-07-02T12:32:42.789Z,28.85
2018-07-02T12:33:42.796Z,29.63
2018-07-02T12:34:42.804Z,29.35
2018-07-02T12:35:42.809Z,29.74
2018-07-02T12:36:42.810Z,29.74
2018-07-02T12:37:42.819Z,28.86
2018-07-02T12:38:42.820Z,28.28
2018-07-02T12:39:42.825Z,27.70
2018-07-02T12:40:42.834Z,27.70
2018-07-02T12:41:42.839Z,27.02
2018-07-02T12:42:42.846Z,26.63
2018-07-02T12:43:42.850Z,26.73
2018-07-02T12:44:42.852Z,26.43
2018-07-02T12:45:42.857Z,26.72
2018-07-02T12:46:42.871Z,26.61
2018-07-02T12:47:42.867Z,26.79
2018-07-02T12:48:42.876Z,27.16
2018-07-02T12:49:42.882Z,27.36
2018-07-02T12:50:42.885Z,27.75
2018-07-02T12:51:42.887Z,27.86
2018-07-02T12:52:42.899Z,27.75